Time;durP1;ratioP1;P1;durP2;ratioP2;P2;SDS_P1;SDS_P2;PMS_P1;PMS_P2;Temp;Humidity;BMP_temperature;BMP_pressure;BME280_temperature;BME280_humidity;BME280_pressure;Samples;Min_cycle;Max_cycle;Signal;HPM_P1;HPM_P2
2024/03/28 00:02:07;;;;;;;16.80;9.40;;;;;;;7.99;72.52;98976.14;104946;1258;75821;-70
2024/03/28 00:04:33;;;;;;;15.20;10.20;;;;;;;7.99;72.52;98977.70;104875;1257;138890;-70
2024/03/28 00:07:00;;;;;;;15.90;9.80;;;;;;;7.97;72.54;98978.05;104871;1257;62125;-71
2024/03/28 00:09:27;;;;;;;16.10;10.10;;;;;;;7.94;72.51;98980.83;104845;1256;62110;-70
2024/03/28 00:11:53;;;;;;;16.80;10.30;;;;;;;7.92;72.58;98976.79;104718;1262;139001;-71
2024/03/28 00:14:20;;;;;;;17.20;10.70;;;;;;;7.89;72.71;98973.45;104792;1259;76146;-70
2024/03/28 00:16:47;;;;;;;15.50;10.30;;;;;;;7.87;72.75;98969.95;104687;1259;138739;-70
2024/03/28 00:19:14;;;;;;;15.60;10.40;;;;;;;7.86;72.75;98966.61;104880;1257;72010;-71
2024/03/28 00:21:40;;;;;;;16.00;10.20;;;;;;;7.83;72.83;98962.05;104786;1259;62137;-70
2024/03/28 00:24:07;;;;;;;15.20;9.20;;;;;;;7.82;72.88;98957.15;104978;1261;137960;-70
2024/03/28 00:26:33;;;;;;;18.50;10.00;;;;;;;7.80;72.89;98953.13;104935;1261;76473;-70
2024/03/28 00:29:00;;;;;;;15.60;9.70;;;;;;;7.78;72.95;98961.48;104862;1256;138823;-70
2024/03/28 00:31:27;;;;;;;16.90;9.50;;;;;;;7.74;72.94;98955.36;104800;1259;73049;-70
2024/03/28 00:33:53;;;;;;;18.70;9.70;;;;;;;7.73;72.96;98954.30;104986;1256;62122;-65
2024/03/28 00:36:20;;;;;;;14.80;10.10;;;;;;;7.69;72.95;98955.49;104777;1256;138644;-65
2024/03/28 00:38:46;;;;;;;17.90;9.50;;;;;;;7.67;73.10;98954.07;103876;1256;76371;-66
2024/03/28 00:41:15;;;;;;;14.30;9.40;;;;;;;7.65;73.11;98947.77;103672;1266;139090;-65
2024/03/28 00:43:43;;;;;;;18.80;9.70;;;;;;;7.63;73.17;98939.02;104414;1256;73139;-66
2024/03/28 00:46:09;;;;;;;16.60;9.80;;;;;;;7.62;73.30;98934.33;108562;1260;138778;-66
2024/03/28 00:48:36;;;;;;;17.00;10.50;;;;;;;7.63;73.34;98936.08;109011;1256;60840;-66
2024/03/28 00:51:03;;;;;;;19.20;9.90;;;;;;;7.62;73.35;98935.00;108855;1256;75032;-65
2024/03/28 00:53:29;;;;;;;19.70;9.80;;;;;;;7.63;73.32;98933.44;108683;1256;138537;-65
2024/03/28 00:55:58;;;;;;;18.30;10.20;;;;;;;7.61;73.37;98936.05;108778;1256;72457;-66
2024/03/28 00:58:25;;;;;;;15.40;9.50;;;;;;;7.61;73.39;98931.88;108521;1261;138770;-65
2024/03/28 01:00:52;;;;;;;17.10;9.80;;;;;;;7.63;73.48;98935.36;107903;1259;60433;-67
2024/03/28 01:03:18;;;;;;;14.00;9.30;;;;;;;7.63;73.43;98934.67;104769;1262;75838;-66
2024/03/28 01:05:45;;;;;;;17.00;10.30;;;;;;;7.68;73.58;98931.73;104775;1259;138508;-66
2024/03/28 01:08:12;;;;;;;14.50;9.50;;;;;;;7.70;73.51;98928.79;105013;1257;73653;-66
2024/03/28 01:10:38;;;;;;;16.00;9.30;;;;;;;7.71;73.57;98925.82;104771;1259;138028;-66
2024/03/28 01:13:05;;;;;;;17.40;9.80;;;;;;;7.71;73.50;98922.67;104931;1260;62041;-66
2024/03/28 01:15:34;;;;;;;18.00;11.10;;;;;;;7.69;73.50;98919.17;104987;1257;73081;-65
2024/03/28 01:18:00;;;;;;;14.50;10.30;;;;;;;7.66;73.57;98921.25;104689;1255;138315;-65
2024/03/28 01:20:27;;;;;;;17.30;10.30;;;;;;;7.63;73.53;98923.84;104865;1262;72929;-66
2024/03/28 01:22:54;;;;;;;16.60;10.60;;;;;;;7.60;73.55;98919.46;104763;1270;138636;-66
2024/03/28 01:25:21;;;;;;;15.00;10.10;;;;;;;7.57;73.63;98916.13;104813;1256;62182;-66
2024/03/28 01:27:47;;;;;;;18.60;10.80;;;;;;;7.54;73.65;98918.54;104864;1260;74870;-66
2024/03/28 01:30:14;;;;;;;16.00;10.30;;;;;;;7.51;73.69;98916.60;104507;1257;139498;-66
2024/03/28 01:32:40;;;;;;;18.00;10.50;;;;;;;7.48;73.67;98917.80;104582;1262;73182;-65
2024/03/28 01:35:07;;;;;;;18.50;10.30;;;;;;;7.45;73.71;98916.36;104779;1259;138703;-65
2024/03/28 01:37:34;;;;;;;17.60;10.90;;;;;;;7.40;73.76;98913.20;105184;1262;62072;-66
2024/03/28 01:40:01;;;;;;;25.40;10.70;;;;;;;7.36;73.79;98913.87;104861;1260;76551;-66
2024/03/28 01:42:27;;;;;;;16.70;11.10;;;;;;;7.34;73.81;98907.91;105719;1260;138719;-67
2024/03/28 01:44:54;;;;;;;21.30;11.00;;;;;;;7.30;73.85;98908.57;104854;1259;72166;-65
2024/03/28 01:47:21;;;;;;;21.10;10.80;;;;;;;7.26;73.85;98907.31;104530;1258;140340;-65
2024/03/28 01:49:48;;;;;;;17.70;10.90;;;;;;;7.23;73.94;98909.91;104375;1257;61942;-66
2024/03/28 01:52:14;;;;;;;18.20;10.40;;;;;;;7.19;74.02;98904.81;104568;1259;138903;-66
2024/03/28 01:54:42;;;;;;;19.00;11.30;;;;;;;7.16;74.06;98904.61;104625;1255;64597;-65
2024/03/28 01:57:08;;;;;;;20.90;12.30;;;;;;;7.11;74.09;98904.57;104413;1263;73877;-71
2024/03/28 01:59:35;;;;;;;20.60;11.70;;;;;;;7.07;74.25;98910.81;104824;1263;138496;-71
2024/03/28 02:02:04;;;;;;;25.00;12.80;;;;;;;7.03;74.18;98906.77;104858;1261;62366;-70
2024/03/28 02:04:31;;;;;;;20.00;11.30;;;;;;;6.98;74.28;98900.09;104668;1256;139373;-72
2024/03/28 02:06:58;;;;;;;20.30;12.50;;;;;;;6.95;74.42;98903.55;104958;1261;66881;-70
2024/03/28 02:09:25;;;;;;;19.40;12.20;;;;;;;6.92;74.48;98904.56;104775;1261;72160;-70
2024/03/28 02:11:53;;;;;;;19.30;11.50;;;;;;;6.90;74.53;98900.35;104314;1258;138790;-69
2024/03/28 02:14:19;;;;;;;16.70;11.70;;;;;;;6.89;74.69;98900.70;105074;1257;62065;-68
2024/03/28 02:16:46;;;;;;;17.90;11.40;;;;;;;6.90;74.85;98896.35;104769;1269;138966;-67
2024/03/28 02:19:12;;;;;;;16.80;10.30;;;;;;;6.90;74.79;98895.48;104848;1262;66966;-68
2024/03/28 02:21:39;;;;;;;17.90;11.20;;;;;;;6.89;74.85;98893.73;104931;1262;62057;-68
2024/03/28 02:24:06;;;;;;;18.50;10.70;;;;;;;6.88;74.91;98896.68;104614;1264;138765;-69
2024/03/28 02:26:33;;;;;;;17.20;10.80;;;;;;;6.88;74.98;98897.73;104620;1260;61965;-68
2024/03/28 02:29:00;;;;;;;16.50;11.00;;;;;;;6.87;74.97;98894.23;104720;1261;139542;-68
2024/03/28 02:31:26;;;;;;;15.90;10.80;;;;;;;6.86;75.13;98889.33;104821;1260;67140;-68
2024/03/28 02:33:53;;;;;;;16.30;10.80;;;;;;;6.87;75.16;98885.50;104685;1264;73760;-67
2024/03/28 02:36:20;;;;;;;16.80;10.30;;;;;;;6.87;75.10;98884.45;104712;1259;138694;-68
2024/03/28 02:38:46;;;;;;;19.40;10.80;;;;;;;6.85;75.12;98881.13;104947;1260;62109;-68
2024/03/28 02:41:13;;;;;;;21.70;11.60;;;;;;;6.84;75.20;98881.48;104842;1261;138545;-69
2024/03/28 02:43:39;;;;;;;21.20;10.90;;;;;;;6.84;75.23;98878.85;104900;1260;66434;-68
2024/03/28 02:46:06;;;;;;;20.90;11.50;;;;;;;6.84;75.44;98872.77;104752;1260;138778;-68
2024/03/28 02:48:32;;;;;;;16.40;11.30;;;;;;;6.84;75.42;98869.97;104672;1255;62153;-68
2024/03/28 02:50:59;;;;;;;19.50;11.10;;;;;;;6.85;75.44;98867.55;104760;1269;62062;-68
2024/03/28 02:53:25;;;;;;;21.20;11.80;;;;;;;6.87;75.40;98867.73;104600;1256;138348;-68
2024/03/28 02:55:52;;;;;;;17.10;11.70;;;;;;;6.88;75.64;98861.63;104741;1260;65149;-68
2024/03/28 02:58:19;;;;;;;21.00;10.90;;;;;;;6.87;75.38;98864.58;104607;1262;138826;-69
2024/03/28 03:00:45;;;;;;;20.60;11.80;;;;;;;6.87;75.46;98869.80;104811;1263;62436;-69
2024/03/28 03:03:12;;;;;;;18.80;11.40;;;;;;;6.87;75.47;98861.63;104886;1261;62085;-69
2024/03/28 03:05:39;;;;;;;22.60;12.70;;;;;;;6.89;75.49;98859.20;104575;1258;139364;-70
2024/03/28 03:08:06;;;;;;;22.70;13.00;;;;;;;6.90;75.56;98864.80;104597;1258;64339;-68
2024/03/28 03:10:33;;;;;;;16.20;10.50;;;;;;;6.92;75.46;98866.73;105286;1260;139007;-68
2024/03/28 03:13:00;;;;;;;16.70;11.70;;;;;;;6.95;75.56;98867.46;104841;1257;62613;-68
2024/03/28 03:15:26;;;;;;;23.30;11.20;;;;;;;6.98;75.66;98866.42;104974;1257;62074;-69
2024/03/28 03:17:53;;;;;;;19.80;9.90;;;;;;;7.03;75.54;98866.83;104784;1270;138819;-70
2024/03/28 03:20:19;;;;;;;17.20;10.50;;;;;;;7.06;75.53;98863.87;104876;1261;62131;-68
2024/03/28 03:22:49;;;;;;;16.40;11.00;;;;;;;7.08;75.53;98865.82;104433;1260;139120;-68
2024/03/28 03:25:24;;;;;;;14.60;9.10;;;;;;;7.07;75.35;98863.37;104515;1263;62172;-69
2024/03/28 03:36:08;;;;;;;17.10;10.70;;;;;;;7.06;75.25;98848.52;104554;1257;138170;-65
2024/03/28 03:38:35;;;;;;;18.50;10.80;;;;;;;7.03;75.32;98841.01;104652;1259;62648;-65
2024/03/28 03:41:02;;;;;;;21.60;11.10;;;;;;;7.00;75.41;98834.72;104570;1260;138682;-65
2024/03/28 03:43:28;;;;;;;14.90;10.30;;;;;;;7.01;75.40;98835.77;104773;1257;74836;-65
2024/03/28 03:45:55;;;;;;;17.10;10.50;;;;;;;7.00;75.37;98836.63;104906;1257;66682;-65
2024/03/28 03:48:22;;;;;;;17.40;10.50;;;;;;;7.00;75.42;98830.52;104610;1263;139321;-65
2024/03/28 03:50:52;;;;;;;16.90;10.20;;;;;;;7.01;75.52;98831.92;108284;1260;62267;-66
2024/03/28 03:53:19;;;;;;;14.40;10.20;;;;;;;7.01;75.40;98832.10;108782;1257;139197;-65
2024/03/28 03:55:53;;;;;;;19.50;10.70;;;;;;;7.00;75.39;98836.12;106727;1261;76747;-65
2024/03/28 03:58:20;;;;;;;21.20;12.10;;;;;;;7.00;75.41;98839.23;106379;1257;139140;-69
2024/03/28 04:00:47;;;;;;;19.80;11.10;;;;;;;7.02;75.42;98838.03;104781;1260;73122;-69
2024/03/28 04:03:14;;;;;;;17.70;10.60;;;;;;;7.05;75.52;98837.37;104913;1261;62192;-69
2024/03/28 04:05:41;;;;;;;20.40;11.60;;;;;;;7.07;75.53;98829.36;104990;1261;138960;-70
2024/03/28 04:08:08;;;;;;;17.30;10.70;;;;;;;7.10;75.52;98824.67;104817;1258;76466;-70
2024/03/28 04:10:34;;;;;;;20.50;10.80;;;;;;;7.13;75.46;98818.08;104644;1261;139459;-70
2024/03/28 04:13:01;;;;;;;19.60;11.20;;;;;;;7.15;75.45;98813.90;104819;1257;73865;-69
2024/03/28 04:15:28;;;;;;;19.10;10.90;;;;;;;7.15;75.51;98814.44;104778;1263;62082;-68
2024/03/28 04:17:55;;;;;;;19.60;10.80;;;;;;;7.16;75.45;98807.80;104666;1257;139686;-69
2024/03/28 04:20:22;;;;;;;21.40;10.90;;;;;;;7.15;75.44;98805.00;104876;1256;75272;-69
2024/03/28 04:22:49;;;;;;;24.60;11.60;;;;;;;7.14;75.40;98802.92;105060;1260;138226;-68
2024/03/28 04:25:16;;;;;;;21.30;12.40;;;;;;;7.13;75.28;98795.92;104918;1258;73290;-69
2024/03/28 04:27:42;;;;;;;21.70;11.80;;;;;;;7.09;75.31;98793.80;104769;1260;63706;-68
2024/03/28 04:30:10;;;;;;;19.40;12.30;;;;;;;7.04;75.29;98786.80;104648;1257;138493;-68
2024/03/28 04:32:36;;;;;;;19.00;12.80;;;;;;;6.99;75.35;98785.19;104944;1260;74970;-67
2024/03/28 04:35:04;;;;;;;22.50;11.50;;;;;;;6.95;75.35;98778.87;104742;1259;138715;-67
2024/03/28 04:37:30;;;;;;;16.60;10.70;;;;;;;6.90;75.36;98765.23;106316;1257;73302;-67
2024/03/28 04:39:57;;;;;;;16.00;10.70;;;;;;;6.87;75.44;98760.67;104834;1260;62156;-69
2024/03/28 04:42:23;;;;;;;19.30;11.50;;;;;;;6.85;75.46;98757.35;104528;1257;138943;-68
2024/03/28 04:44:50;;;;;;;17.70;10.90;;;;;;;6.84;75.59;98763.44;104889;1257;73660;-68
2024/03/28 04:47:16;;;;;;;15.20;11.30;;;;;;;6.85;75.64;98773.56;104674;1260;139377;-68
2024/03/28 04:49:43;;;;;;;20.10;11.80;;;;;;;6.87;75.72;98773.58;104961;1257;72513;-69
2024/03/28 04:52:10;;;;;;;21.40;11.20;;;;;;;6.88;75.70;98768.36;104934;1260;62038;-68
2024/03/28 04:54:36;;;;;;;19.10;12.10;;;;;;;6.90;75.72;98769.58;104616;1257;138619;-68
2024/03/28 04:57:05;;;;;;;18.10;11.80;;;;;;;6.92;75.79;98773.09;104901;1259;75191;-70
2024/03/28 04:59:31;;;;;;;18.60;11.90;;;;;;;6.97;75.87;98768.95;104689;1258;138848;-69
2024/03/28 05:01:58;;;;;;;17.30;10.70;;;;;;;7.04;75.84;98767.42;104848;1260;73087;-69
2024/03/28 05:04:25;;;;;;;26.60;11.70;;;;;;;7.10;75.93;98769.57;104673;1257;139158;-68
2024/03/28 05:06:52;;;;;;;20.30;11.80;;;;;;;7.22;76.00;98767.20;104877;1260;62494;-69
2024/03/28 05:09:19;;;;;;;23.00;10.40;;;;;;;7.29;75.92;98766.73;104899;1257;73819;-69
2024/03/28 05:11:46;;;;;;;18.20;11.50;;;;;;;7.35;75.73;98758.21;105170;1262;139372;-67
2024/03/28 05:14:13;;;;;;;23.80;12.10;;;;;;;7.43;75.79;98750.92;104726;1264;73018;-68
2024/03/28 05:16:39;;;;;;;17.00;11.80;;;;;;;7.53;75.80;98753.59;104894;1260;138750;-68
2024/03/28 05:19:06;;;;;;;21.80;11.70;;;;;;;7.63;75.81;98754.52;104767;1260;62060;-68
2024/03/28 05:21:33;;;;;;;14.50;11.00;;;;;;;7.73;75.63;98754.39;105453;1258;75929;-67
2024/03/28 05:23:59;;;;;;;19.70;11.20;;;;;;;7.78;75.45;98752.83;104786;1257;138687;-68
2024/03/28 05:26:26;;;;;;;21.80;12.10;;;;;;;7.84;75.34;98754.61;104887;1261;73716;-68
2024/03/28 05:28:52;;;;;;;21.10;11.20;;;;;;;7.91;75.22;98750.96;104643;1260;139192;-68
2024/03/28 05:31:20;;;;;;;18.80;11.70;;;;;;;7.97;75.20;98752.04;104723;1257;62027;-68
2024/03/28 05:33:47;;;;;;;21.30;12.50;;;;;;;8.03;75.06;98751.02;104721;1257;73874;-68
2024/03/28 05:36:13;;;;;;;22.20;15.30;;;;;;;8.09;74.94;98748.40;104299;1261;139099;-68
2024/03/28 05:38:40;;;;;;;26.60;16.50;;;;;;;8.13;74.87;98751.03;104665;1258;73449;-68
2024/03/28 05:41:07;;;;;;;45.60;26.50;;;;;;;8.19;74.81;98749.98;104706;1261;138000;-68
2024/03/28 05:43:33;;;;;;;38.10;21.70;;;;;;;8.25;74.75;98746.34;104750;1260;62060;-68
2024/03/28 05:46:00;;;;;;;35.90;20.20;;;;;;;8.32;74.69;98746.36;104902;1257;76226;-68
2024/03/28 05:48:27;;;;;;;22.70;15.30;;;;;;;8.39;74.65;98744.11;104701;1259;138196;-68
2024/03/28 05:50:53;;;;;;;27.30;15.50;;;;;;;8.47;74.65;98742.91;104687;1266;75323;-68
2024/03/28 05:53:20;;;;;;;20.00;13.70;;;;;;;8.56;74.56;98736.46;104759;1261;139077;-69
2024/03/28 05:55:46;;;;;;;20.10;12.50;;;;;;;8.61;74.26;98735.77;104897;1257;62898;-69
2024/03/28 05:58:13;;;;;;;20.30;10.50;;;;;;;8.64;74.10;98741.02;104961;1260;138962;-68
2024/03/28 06:00:40;;;;;;;23.70;11.90;;;;;;;8.67;74.06;98740.48;104794;1260;67137;-70
2024/03/28 06:03:06;;;;;;;15.90;10.50;;;;;;;8.72;73.95;98738.21;106310;1257;72297;-70
2024/03/28 06:05:33;;;;;;;16.20;10.30;;;;;;;8.77;73.85;98734.71;104667;1257;138530;-70
2024/03/28 06:08:00;;;;;;;20.20;11.20;;;;;;;8.82;73.74;98729.65;104927;1260;62377;-67
2024/03/28 06:10:27;;;;;;;17.70;10.70;;;;;;;8.86;73.69;98730.87;104665;1262;138678;-67
2024/03/28 06:12:53;;;;;;;19.00;10.80;;;;;;;8.88;73.44;98730.52;104961;1257;67808;-67
2024/03/28 06:15:20;;;;;;;21.10;12.10;;;;;;;8.91;73.54;98732.26;104893;1266;71937;-68
2024/03/28 06:17:46;;;;;;;27.60;14.20;;;;;;;8.96;73.37;98730.69;104779;1259;138261;-67
2024/03/28 06:20:13;;;;;;;28.30;13.70;;;;;;;9.00;73.27;98725.25;105000;1257;61545;-67
2024/03/28 06:22:39;;;;;;;26.00;14.10;;;;;;;9.01;73.12;98725.77;104717;1257;138191;-67
2024/03/28 06:25:11;;;;;;;22.90;13.00;;;;;;;9.04;73.20;98727.16;104681;1257;67397;-67
2024/03/28 06:27:44;;;;;;;23.20;13.40;;;;;;;9.11;73.10;98731.37;104864;1258;71475;-68
2024/03/28 06:30:12;;;;;;;25.40;13.20;;;;;;;9.21;73.18;98737.46;104650;1257;138982;-68
2024/03/28 06:32:56;;;;;;;25.40;13.90;;;;;;;9.35;73.15;98745.32;104854;1262;62080;-66
2024/03/28 06:35:22;;;;;;;22.80;13.40;;;;;;;9.52;73.15;98741.77;104779;1261;139418;-66
2024/03/28 06:37:49;;;;;;;22.70;14.30;;;;;;;9.66;73.02;98735.77;105029;1260;67225;-67
2024/03/28 06:40:20;;;;;;;23.30;12.80;;;;;;;9.81;72.96;98732.21;104943;1256;138298;-66
2024/03/28 06:42:58;;;;;;;23.70;13.40;;;;;;;9.97;72.77;98733.53;105109;1256;62144;-67
2024/03/28 06:45:30;;;;;;;26.80;13.00;;;;;;;10.15;72.58;98727.47;104754;1257;62088;-67
2024/03/28 06:47:57;;;;;;;20.70;12.60;;;;;;;10.28;72.26;98720.39;104746;1256;139152;-67
2024/03/28 06:50:24;;;;;;;27.80;14.10;;;;;;;10.43;72.19;98721.02;104875;1260;67368;-67
2024/03/28 06:52:51;;;;;;;20.70;13.60;;;;;;;10.58;71.81;98712.67;104734;1258;138673;-67
2024/03/28 06:55:18;;;;;;;22.30;13.50;;;;;;;10.75;71.86;98718.50;105127;1260;62182;-67
2024/03/28 06:57:45;;;;;;;22.30;13.70;;;;;;;10.91;71.72;98718.02;104989;1258;62157;-68
2024/03/28 07:00:13;;;;;;;24.30;14.70;;;;;;;11.05;71.35;98705.41;104804;1256;138226;-67
2024/03/28 07:02:40;;;;;;;31.00;14.50;;;;;;;11.16;71.17;98696.35;105236;1258;67340;-68
2024/03/28 07:05:07;;;;;;;24.30;14.60;;;;;;;11.30;71.00;98694.09;105103;1257;138315;-67
2024/03/28 07:07:34;;;;;;;28.50;16.70;;;;;;;11.45;70.89;98694.98;104924;1257;62066;-67
2024/03/28 07:10:01;;;;;;;22.20;13.90;;;;;;;11.53;70.55;98699.12;104861;1262;62061;-66
2024/03/28 07:12:27;;;;;;;24.00;13.30;;;;;;;11.59;70.47;98708.70;104721;1257;138291;-67
2024/03/28 07:14:54;;;;;;;24.60;14.20;;;;;;;11.64;70.29;98711.80;104916;1260;67060;-68
2024/03/28 07:17:21;;;;;;;22.30;14.50;;;;;;;11.70;70.21;98712.95;104799;1260;138188;-67
2024/03/28 07:19:48;;;;;;;30.00;17.20;;;;;;;11.76;70.15;98712.54;104892;1260;62092;-67
2024/03/28 07:22:14;;;;;;;29.60;17.10;;;;;;;11.79;70.15;98713.90;104852;1257;138480;-66
2024/03/28 07:24:41;;;;;;;67.00;31.60;;;;;;;11.80;70.31;98715.11;104950;1260;76426;-68
2024/03/28 07:27:07;;;;;;;47.60;29.30;;;;;;;11.85;70.67;98715.23;104913;1260;66550;-68
2024/03/28 07:29:34;;;;;;;38.90;23.20;;;;;;;11.98;70.64;98720.02;104827;1260;139330;-67
2024/03/28 07:32:02;;;;;;;35.90;23.00;;;;;;;12.14;70.73;98715.93;104830;1262;62160;-67
2024/03/28 07:34:29;;;;;;;41.70;22.40;;;;;;;12.31;70.66;98700.38;104894;1258;139532;-66
2024/03/28 07:36:55;;;;;;;34.10;23.40;;;;;;;12.42;70.47;98707.60;104761;1258;74870;-68
2024/03/28 07:39:22;;;;;;;32.10;20.10;;;;;;;12.63;70.77;98713.79;104849;1259;67303;-67
2024/03/28 07:41:49;;;;;;;35.10;22.00;;;;;;;12.90;70.73;98711.92;104696;1258;138963;-64
2024/03/28 07:44:16;;;;;;;32.00;20.20;;;;;;;13.05;70.27;98705.86;104862;1260;62003;-66
2024/03/28 07:46:42;;;;;;;27.10;19.30;;;;;;;13.19;70.33;98705.61;104664;1256;138430;-65
2024/03/28 07:49:09;;;;;;;30.60;17.70;;;;;;;13.37;70.23;98713.41;104813;1257;76362;-65
2024/03/28 07:51:36;;;;;;;29.80;19.90;;;;;;;13.52;70.10;98712.06;104744;1256;66956;-65
2024/03/28 07:54:03;;;;;;;31.30;20.10;;;;;;;13.64;69.85;98709.19;104633;1260;138779;-65
2024/03/28 07:56:29;;;;;;;31.10;21.30;;;;;;;13.70;69.71;98706.95;104744;1257;62061;-65
2024/03/28 07:58:56;;;;;;;48.00;32.70;;;;;;;13.72;69.39;98705.85;104674;1257;138458;-65
2024/03/28 08:01:23;;;;;;;31.40;21.50;;;;;;;13.64;69.33;98707.41;104841;1256;76712;-66
2024/03/28 08:03:49;;;;;;;27.50;17.10;;;;;;;13.57;69.25;98706.88;104756;1257;65632;-66
2024/03/28 08:06:16;;;;;;;28.10;17.10;;;;;;;13.47;69.08;98708.81;104729;1257;138812;-67
2024/03/28 08:08:42;;;;;;;28.80;17.20;;;;;;;13.41;69.32;98704.88;104722;1256;62843;-65
2024/03/28 08:11:09;;;;;;;27.40;17.70;;;;;;;13.39;69.50;98700.14;104663;1256;138225;-66
2024/03/28 08:13:36;;;;;;;31.10;15.90;;;;;;;13.36;69.67;98694.40;104829;1258;75909;-68
2024/03/28 08:16:03;;;;;;;26.10;15.50;;;;;;;13.36;69.79;98699.14;104870;1257;66059;-69
2024/03/28 08:18:29;;;;;;;27.60;16.40;;;;;;;13.40;70.21;98693.26;104718;1263;138094;-70
2024/03/28 08:20:58;;;;;;;31.80;18.20;;;;;;;13.48;70.47;98692.94;104852;1257;62064;-70
2024/03/28 08:23:25;;;;;;;73.60;42.30;;;;;;;13.57;70.84;98690.64;104840;1256;138863;-69
2024/03/28 08:25:52;;;;;;;86.00;54.30;;;;;;;13.71;71.20;98682.95;104820;1256;76681;-69
2024/03/28 08:28:18;;;;;;;77.70;46.60;;;;;;;13.95;71.28;98685.63;104813;1257;139304;-68
2024/03/28 08:30:45;;;;;;;65.90;42.50;;;;;;;14.12;70.95;98683.31;104740;1258;73626;-70
2024/03/28 08:33:12;;;;;;;64.20;39.60;;;;;;;14.25;71.03;98670.30;104810;1256;62168;-69
2024/03/28 08:35:42;;;;;;;47.00;33.60;;;;;;;14.42;71.10;98666.91;104527;1256;190190;-67
2024/03/28 08:38:10;;;;;;;46.20;27.60;;;;;;;14.57;70.90;98660.92;104781;1256;76206;-67
2024/03/28 08:40:37;;;;;;;29.90;17.60;;;;;;;14.71;70.66;98653.86;104862;1262;138921;-69
2024/03/28 08:43:04;;;;;;;26.50;15.00;;;;;;;14.88;70.51;98651.33;104721;1262;73595;-68
2024/03/28 08:45:32;;;;;;;23.10;13.60;;;;;;;14.98;70.13;98650.36;105706;1257;62204;-68
2024/03/28 08:48:00;;;;;;;22.00;12.20;;;;;;;14.97;69.72;98650.54;108885;1256;138459;-68
2024/03/28 08:50:26;;;;;;;25.80;12.50;;;;;;;15.00;69.68;98645.89;106117;1257;73879;-68
2024/03/28 08:52:54;;;;;;;20.00;11.30;;;;;;;15.04;69.56;98644.37;104710;1256;138493;-68
2024/03/28 08:55:23;;;;;;;22.70;11.20;;;;;;;15.13;69.62;98644.83;105262;1257;73389;-69
2024/03/28 08:57:53;;;;;;;20.40;11.50;;;;;;;15.21;69.42;98647.08;104837;1260;62166;-68
2024/03/28 09:00:19;;;;;;;30.10;13.50;;;;;;;15.28;69.29;98644.75;104701;1260;138714;-68
2024/03/28 09:02:47;;;;;;;17.10;10.20;;;;;;;15.34;69.13;98647.06;106090;1256;75776;-68
2024/03/28 09:05:15;;;;;;;18.30;9.70;;;;;;;15.38;68.89;98647.66;105396;1261;138673;-68
2024/03/28 09:07:42;;;;;;;29.50;11.40;;;;;;;15.36;68.63;98645.23;105091;1257;72322;-68
2024/03/28 09:10:10;;;;;;;21.10;10.90;;;;;;;15.38;68.55;98647.48;104763;1263;62207;-68
2024/03/28 09:12:38;;;;;;;25.20;11.50;;;;;;;15.47;68.62;98647.07;105133;1257;137984;-68
2024/03/28 09:15:08;;;;;;;26.40;12.60;;;;;;;15.55;68.33;98645.58;105547;1257;75520;-68
2024/03/28 09:17:35;;;;;;;22.20;11.70;;;;;;;15.67;68.34;98646.11;104688;1256;138894;-68
2024/03/28 09:20:05;;;;;;;26.60;11.40;;;;;;;15.87;68.42;98643.43;105419;1259;71637;-67
2024/03/28 09:22:34;;;;;;;19.40;10.00;;;;;;;16.10;68.18;98641.34;104788;1258;138359;-67
2024/03/28 09:25:02;;;;;;;20.20;9.50;;;;;;;16.22;67.86;98652.63;104829;1260;62059;-68
2024/03/28 09:27:29;;;;;;;18.50;10.10;;;;;;;16.21;67.29;98648.23;105244;1260;73190;-69
2024/03/28 09:29:56;;;;;;;22.30;10.20;;;;;;;16.15;67.27;98647.17;104910;1261;138787;-68
2024/03/28 09:32:23;;;;;;;29.30;14.30;;;;;;;16.12;67.10;98654.88;105177;1258;73239;-68
2024/03/28 09:34:49;;;;;;;24.70;12.00;;;;;;;16.13;67.32;98654.31;104748;1256;138443;-68
2024/03/28 09:37:17;;;;;;;28.00;13.60;;;;;;;16.17;67.24;98653.14;105127;1259;62022;-69
2024/03/28 09:39:45;;;;;;;39.90;26.20;;;;;;;16.19;67.13;98649.18;106814;1257;74659;-69
2024/03/28 09:42:12;;;;;;;46.00;28.40;;;;;;;16.16;66.98;98648.94;104813;1260;139224;-69
2024/03/28 09:44:38;;;;;;;35.40;17.60;;;;;;;16.16;66.94;98648.02;104893;1256;73845;-69
2024/03/28 09:47:05;;;;;;;32.30;12.60;;;;;;;16.22;67.05;98647.31;104735;1257;138271;-68
2024/03/28 09:49:33;;;;;;;25.80;9.60;;;;;;;16.41;67.28;98652.36;104669;1264;62105;-68
2024/03/28 09:52:01;;;;;;;22.70;11.00;;;;;;;16.57;66.90;98649.39;104830;1256;76335;-68
2024/03/28 09:54:32;;;;;;;20.20;9.10;;;;;;;16.65;66.76;98645.91;106873;1257;139268;-69
2024/03/28 09:56:59;;;;;;;20.90;9.30;;;;;;;16.77;66.63;98642.16;105745;1260;73223;-69
2024/03/28 09:59:30;;;;;;;21.80;9.30;;;;;;;16.90;66.53;98637.83;104852;1259;138743;-69
2024/03/28 10:01:59;;;;;;;25.80;9.40;;;;;;;17.05;66.32;98635.73;105039;1262;62084;-68
2024/03/28 10:04:25;;;;;;;32.90;11.80;;;;;;;17.12;65.84;98639.74;104904;1257;138613;-68
2024/03/28 10:06:57;;;;;;;23.20;9.40;;;;;;;17.07;65.53;98649.10;104807;1260;67698;-68
2024/03/28 10:09:24;;;;;;;27.90;9.70;;;;;;;17.04;65.40;98648.17;104820;1257;73688;-69
2024/03/28 10:11:51;;;;;;;29.70;9.70;;;;;;;17.06;65.43;98644.20;104608;1262;138942;-68
2024/03/28 10:14:19;;;;;;;19.70;9.80;;;;;;;17.10;65.35;98636.09;105057;1260;62122;-68
2024/03/28 10:16:49;;;;;;;26.80;9.60;;;;;;;17.13;65.00;98634.55;104837;1258;138379;-69
2024/03/28 10:19:18;;;;;;;28.00;10.40;;;;;;;17.09;64.71;98633.09;104816;1257;65881;-68
2024/03/28 10:21:45;;;;;;;29.80;12.20;;;;;;;17.01;64.52;98634.08;104898;1261;73554;-68
2024/03/28 10:24:18;;;;;;;23.70;9.90;;;;;;;16.93;64.34;98624.61;104912;1258;138557;-67
2024/03/28 10:26:45;;;;;;;30.60;12.10;;;;;;;16.85;64.44;98622.23;105006;1261;62699;-68
2024/03/28 10:29:16;;;;;;;37.50;16.00;;;;;;;16.85;64.53;98622.08;104565;1258;138336;-69
2024/03/28 10:31:42;;;;;;;33.70;11.10;;;;;;;16.80;64.20;98617.80;104894;1262;66953;-68
2024/03/28 10:34:16;;;;;;;27.20;10.90;;;;;;;16.78;64.15;98611.11;104880;1257;73609;-68
2024/03/28 10:36:47;;;;;;;33.40;10.50;;;;;;;16.74;63.94;98597.09;105278;1258;62138;-69
2024/03/28 10:39:14;;;;;;;31.50;10.50;;;;;;;16.81;64.11;98596.70;104868;1258;62064;-68
2024/03/28 10:41:40;;;;;;;26.80;12.50;;;;;;;16.97;64.10;98594.38;104660;1257;138310;-68
2024/03/28 10:44:09;;;;;;;22.20;10.00;;;;;;;17.08;64.00;98589.92;104827;1260;67234;-69
2024/03/28 10:46:39;;;;;;;22.10;10.10;;;;;;;17.14;63.78;98581.89;108823;1257;139277;-68
2024/03/28 10:49:06;;;;;;;25.90;12.20;;;;;;;17.23;63.68;98575.70;107130;1259;62158;-68
2024/03/28 10:51:36;;;;;;;27.30;11.70;;;;;;;17.35;63.63;98564.80;106964;1258;59745;-67
2024/03/28 10:54:18;;;;;;;34.70;10.80;;;;;;;17.49;63.35;98561.28;105007;1257;138873;-68
2024/03/28 10:56:45;;;;;;;22.50;9.60;;;;;;;17.65;63.18;98555.13;105462;1259;66498;-67
2024/03/28 10:59:12;;;;;;;23.40;9.30;;;;;;;17.78;63.03;98551.65;104611;1260;138715;-68
2024/03/28 11:01:38;;;;;;;21.60;9.30;;;;;;;17.94;62.92;98552.09;104763;1260;62118;-68
2024/03/28 11:04:05;;;;;;;25.10;10.00;;;;;;;18.10;62.74;98550.19;104756;1262;61943;-70
2024/03/28 11:06:32;;;;;;;30.30;10.20;;;;;;;18.16;62.24;98548.70;104713;1262;138465;-69
2024/03/28 11:09:02;;;;;;;26.00;9.00;;;;;;;18.02;61.65;98548.20;108852;1257;67038;-69
2024/03/28 11:11:30;;;;;;;29.20;11.60;;;;;;;17.85;61.49;98550.50;104613;1260;138781;-67
2024/03/28 11:14:00;;;;;;;35.40;12.90;;;;;;;17.77;61.71;98551.48;108388;1257;60034;-68
2024/03/28 11:16:26;;;;;;;31.80;10.50;;;;;;;17.84;61.86;98550.87;104694;1257;138682;-67
2024/03/28 11:18:58;;;;;;;20.90;9.50;;;;;;;17.96;61.68;98545.44;104706;1257;62090;-64
2024/03/28 11:21:29;;;;;;;24.80;10.20;;;;;;;18.06;61.45;98541.84;108874;1257;66365;-65